Deadwood, OR (97430)

10:00 AM PST on February 13, 2016 (GMT -0800)
Greenleaf | | Change Station
CLOSE
Current Station
Personal Weather Station
Location: Deadwood, OR
Elevation: 584 ft
Nearby Weather Stations

Elev 584 ft 44.09 °N, 123.66 °W | Updated 6 seconds ago

Mostly Cloudy
Mostly Cloudy
45.5 °F
Feels Like 46 °F
N
0.0
Wind Variable Wind from ESE

Today
High -- | Low -- °F
--% Chance of Precip.
Yesterday
High -- | Low -- °F
Precip. -- in
Pressure 30.40 in
Visibility 10.0 miles
Clouds Scattered Clouds 800 ft
Mostly Cloudy 19000 ft
Mostly Cloudy 26000 ft
Windchill 46 °F
Dew Point 45 °F
Humidity 99%
Rainfall 0.00 in
Snow Depth Not available.
7:17 AM 5:41 PM
Waxing Crescent, 32% visible
METAR KEUG 131754Z 16004KT 10SM SCT008 BKN190 BKN260 08/06 A3039 RMK AO2 SLP292 T00780056 10078 20028 53001 $
Pressure 30.40 in
Visibility 10.0 miles
Clouds Scattered Clouds 800 ft
Mostly Cloudy 19000 ft
Mostly Cloudy 26000 ft
Windchill 46 °F
Dew Point 45 °F
Humidity 99%
Rainfall 0.00 in
Snow Depth Not available.
7:17 AM 5:41 PM
Waxing Crescent, 32% visible
METAR KEUG 131754Z 16004KT 10SM SCT008 BKN190 BKN260 08/06 A3039 RMK AO2 SLP292 T00780056 10078 20028 53001 $

10-Day Weather Forecast

Almanac

Astronomy

Feb. 13, 2016 Rise Set
Actual Time
Civil Twilight
Nautical Twilight
Astronomical Twilight
Moon
Length of Visible Light
Length of Day
Tomorrow will be .
, % of the Moon is Illuminated

Today's Extremes

State Highs State Lows

Community

WunderPhotos

Upload Photos

1,892,623 photos uploaded!

WunderBlog® & News

Nearby

Air Quality

  Air Quality AQ Index Pollutant
Not available.

Snow Depth

Station Depth Elevation

Earthquake Activity

City Distance Mag. Time & Date
Minimum magnitude displayed is 2.5.

Coastal Water Temperatures

Place Temperature

Stations

Nearby Weather Stations

Station Location Temp. Windchill Dew Point Humidity Wind Precip. Elev Updated Type
                   

Watches & Warnings

There are currently no watches in effect.